sensor_id;sensor_type;location;lat;lon;timestamp;pressure;altitude;pressure_sealevel;temperature;humidity
45523;BME280;31254;51.680;5.394;2023-02-22T00:01:47;101577.72;;;7.61;93.08
45523;BME280;31254;51.680;5.394;2023-02-22T00:04:19;101579.66;;;7.59;93.22
45523;BME280;31254;51.680;5.394;2023-02-22T00:06:47;101585.88;;;7.61;93.26
45523;BME280;31254;51.680;5.394;2023-02-22T00:09:15;101533.94;;;7.29;93.12
45523;BME280;31254;51.680;5.394;2023-02-22T00:11:47;101587.59;;;7.62;92.98
45523;BME280;31254;51.680;5.394;2023-02-22T00:14:15;101382.28;;;6.37;93.00
45523;BME280;31254;51.680;5.394;2023-02-22T00:16:45;101594.13;;;7.60;93.03
45523;BME280;31254;51.680;5.394;2023-02-22T00:19:12;101588.03;;;7.56;93.29
45523;BME280;31254;51.680;5.394;2023-02-22T00:21:38;101587.19;;;7.56;93.00
45523;BME280;31254;51.680;5.394;2023-02-22T00:24:05;101591.66;;;7.57;93.10
45523;BME280;31254;51.680;5.394;2023-02-22T00:26:53;101557.00;;;7.47;93.11
45523;BME280;31254;51.680;5.394;2023-02-22T00:29:24;101580.78;;;7.57;93.07
45523;BME280;31254;51.680;5.394;2023-02-22T00:31:53;101562.09;;;7.52;92.98
45523;BME280;31254;51.680;5.394;2023-02-22T00:34:22;101568.50;;;7.51;93.01
45523;BME280;31254;51.680;5.394;2023-02-22T00:36:49;101567.19;;;7.57;92.99
45523;BME280;31254;51.680;5.394;2023-02-22T00:39:18;101544.63;;;7.43;93.09
45523;BME280;31254;51.680;5.394;2023-02-22T00:41:45;101565.34;;;7.57;93.06
45523;BME280;31254;51.680;5.394;2023-02-22T00:44:12;101563.59;;;7.56;93.47
45523;BME280;31254;51.680;5.394;2023-02-22T00:46:39;101545.50;;;7.44;93.02
45523;BME280;31254;51.680;5.394;2023-02-22T00:49:06;101561.09;;;7.53;93.35
45523;BME280;31254;51.680;5.394;2023-02-22T00:51:35;101565.03;;;7.49;93.49
45523;BME280;31254;51.680;5.394;2023-02-22T00:54:02;101556.81;;;7.38;93.14
45523;BME280;31254;51.680;5.394;2023-02-22T00:56:28;101551.59;;;7.35;93.26
45523;BME280;31254;51.680;5.394;2023-02-22T00:58:55;101537.63;;;7.28;93.17
45523;BME280;31254;51.680;5.394;2023-02-22T01:01:21;101563.75;;;7.42;92.54
45523;BME280;31254;51.680;5.394;2023-02-22T01:03:49;101547.16;;;7.33;93.36
45523;BME280;31254;51.680;5.394;2023-02-22T01:06:19;101561.81;;;7.44;93.39
45523;BME280;31254;51.680;5.394;2023-02-22T01:08:48;101428.34;;;6.63;92.94
45523;BME280;31254;51.680;5.394;2023-02-22T01:11:15;101578.22;;;7.42;93.00
45523;BME280;31254;51.680;5.394;2023-02-22T01:13:43;101563.75;;;7.42;92.92
45523;BME280;31254;51.680;5.394;2023-02-22T01:16:13;101550.31;;;7.40;93.07
45523;BME280;31254;51.680;5.394;2023-02-22T01:18:39;101539.91;;;7.34;93.03
45523;BME280;31254;51.680;5.394;2023-02-22T01:21:09;101554.00;;;7.39;93.06
45523;BME280;31254;51.680;5.394;2023-02-22T01:23:38;101535.09;;;7.38;93.33
45523;BME280;31254;51.680;5.394;2023-02-22T01:26:04;101538.38;;;7.30;93.00
45523;BME280;31254;51.680;5.394;2023-02-22T01:28:32;101518.94;;;7.23;93.08
45523;BME280;31254;51.680;5.394;2023-02-22T01:31:01;101532.72;;;7.33;93.30
45523;BME280;31254;51.680;5.394;2023-02-22T01:33:28;101536.19;;;7.35;93.05
45523;BME280;31254;51.680;5.394;2023-02-22T01:35:55;101340.78;;;6.11;93.15
45523;BME280;31254;51.680;5.394;2023-02-22T01:38:22;101500.84;;;7.11;93.16
45523;BME280;31254;51.680;5.394;2023-02-22T01:40:50;101541.72;;;7.33;93.33
45523;BME280;31254;51.680;5.394;2023-02-22T01:43:27;101510.19;;;7.20;93.20
45523;BME280;31254;51.680;5.394;2023-02-22T01:46:23;101531.75;;;7.34;93.22
45523;BME280;31254;51.680;5.394;2023-02-22T01:48:55;101539.00;;;7.33;93.23
45523;BME280;31254;51.680;5.394;2023-02-22T01:57:04;101530.97;;;7.32;93.06
45523;BME280;31254;51.680;5.394;2023-02-22T01:59:39;101525.53;;;7.32;93.12
45523;BME280;31254;51.680;5.394;2023-02-22T02:02:08;101515.78;;;7.29;93.50
45523;BME280;31254;51.680;5.394;2023-02-22T02:04:35;101519.38;;;7.30;93.06
45523;BME280;31254;51.680;5.394;2023-02-22T02:07:04;101512.22;;;7.29;93.25
45523;BME280;31254;51.680;5.394;2023-02-22T02:09:39;101515.56;;;7.32;93.12
45523;BME280;31254;51.680;5.394;2023-02-22T02:12:11;101501.25;;;7.30;93.26
45523;BME280;31254;51.680;5.394;2023-02-22T02:14:41;101495.81;;;7.30;93.62
45523;BME280;31254;51.680;5.394;2023-02-22T02:17:11;101492.97;;;7.32;93.52
45523;BME280;31254;51.680;5.394;2023-02-22T02:25:33;101489.00;;;7.25;93.71
45523;BME280;31254;51.680;5.394;2023-02-22T02:31:11;101472.75;;;7.12;93.51
45523;BME280;31254;51.680;5.394;2023-02-22T02:39:28;101468.97;;;7.02;93.04
45523;BME280;31254;51.680;5.394;2023-02-22T02:41:56;101470.69;;;7.03;93.31
45523;BME280;31254;51.680;5.394;2023-02-22T02:44:35;101475.16;;;7.04;93.34
45523;BME280;31254;51.680;5.394;2023-02-22T02:47:18;101464.94;;;6.94;93.31
45523;BME280;31254;51.680;5.394;2023-02-22T02:49:53;101469.72;;;7.04;93.38
45523;BME280;31254;51.680;5.394;2023-02-22T02:52:24;101467.00;;;7.04;93.76
45523;BME280;31254;51.680;5.394;2023-02-22T02:54:53;101446.97;;;6.93;93.79
45523;BME280;31254;51.680;5.394;2023-02-22T02:57:21;101468.75;;;7.05;93.68
45523;BME280;31254;51.680;5.394;2023-02-22T02:59:47;101462.44;;;7.04;93.56
45523;BME280;31254;51.680;5.394;2023-02-22T03:02:31;101460.72;;;7.03;93.76
45523;BME280;31254;51.680;5.394;2023-02-22T03:08:06;101434.69;;;6.88;93.80
45523;BME280;31254;51.680;5.394;2023-02-22T03:13:35;101452.91;;;6.99;94.03
45523;BME280;31254;51.680;5.394;2023-02-22T03:26:44;101445.00;;;6.95;93.84
45523;BME280;31254;51.680;5.394;2023-02-22T03:29:14;101420.38;;;6.86;94.14
45523;BME280;31254;51.680;5.394;2023-02-22T03:31:54;101435.13;;;6.94;94.13
45523;BME280;31254;51.680;5.394;2023-02-22T03:35:13;101415.94;;;6.85;94.46
45523;BME280;31254;51.680;5.394;2023-02-22T03:37:30;101436.13;;;6.93;94.09
45523;BME280;31254;51.680;5.394;2023-02-22T03:40:02;101425.47;;;6.90;94.26
45523;BME280;31254;51.680;5.394;2023-02-22T03:42:46;101420.16;;;6.89;94.52
45523;BME280;31254;51.680;5.394;2023-02-22T03:45:18;101426.22;;;6.92;94.40
45523;BME280;31254;51.680;5.394;2023-02-22T03:47:48;101423.41;;;6.94;94.59
45523;BME280;31254;51.680;5.394;2023-02-22T03:50:27;101355.59;;;6.57;94.74
45523;BME280;31254;51.680;5.394;2023-02-22T03:53:01;101409.09;;;6.92;94.62
45523;BME280;31254;51.680;5.394;2023-02-22T03:55:28;101402.03;;;6.89;94.68
45523;BME280;31254;51.680;5.394;2023-02-22T03:57:58;101404.53;;;6.92;94.74
45523;BME280;31254;51.680;5.394;2023-02-22T04:00:28;101402.03;;;6.89;95.04
45523;BME280;31254;51.680;5.394;2023-02-22T04:02:56;101385.69;;;6.78;94.66
45523;BME280;31254;51.680;5.394;2023-02-22T04:05:25;101368.38;;;6.68;95.10
45523;BME280;31254;51.680;5.394;2023-02-22T04:07:53;101381.78;;;6.82;95.49
45523;BME280;31254;51.680;5.394;2023-02-22T04:10:20;101381.13;;;6.78;94.99
45523;BME280;31254;51.680;5.394;2023-02-22T04:12:48;101342.56;;;6.62;94.88
45523;BME280;31254;51.680;5.394;2023-02-22T04:15:21;101356.63;;;6.67;95.19
45523;BME280;31254;51.680;5.394;2023-02-22T04:17:49;101350.13;;;6.70;94.87
45523;BME280;31254;51.680;5.394;2023-02-22T04:20:17;101371.69;;;6.84;95.25
45523;BME280;31254;51.680;5.394;2023-02-22T04:22:51;101357.06;;;6.74;95.04
45523;BME280;31254;51.680;5.394;2023-02-22T04:25:19;101348.38;;;6.69;95.28
45523;BME280;31254;51.680;5.394;2023-02-22T04:27:46;101359.09;;;6.83;95.20
45523;BME280;31254;51.680;5.394;2023-02-22T04:30:18;101351.06;;;6.82;95.44
45523;BME280;31254;51.680;5.394;2023-02-22T04:32:45;101351.41;;;6.77;95.51
45523;BME280;31254;51.680;5.394;2023-02-22T04:35:14;101351.53;;;6.75;95.67
45523;BME280;31254;51.680;5.394;2023-02-22T04:37:43;101319.38;;;6.58;95.58
45523;BME280;31254;51.680;5.394;2023-02-22T04:40:10;101331.38;;;6.67;95.52
45523;BME280;31254;51.680;5.394;2023-02-22T04:42:39;101328.13;;;6.62;95.48
45523;BME280;31254;51.680;5.394;2023-02-22T04:45:07;101342.56;;;6.62;95.62
45523;BME280;31254;51.680;5.394;2023-02-22T04:47:35;101339.41;;;6.68;95.58
45523;BME280;31254;51.680;5.394;2023-02-22T04:50:07;101340.25;;;6.69;95.78
45523;BME280;31254;51.680;5.394;2023-02-22T04:52:39;101342.22;;;6.67;95.85
45523;BME280;31254;51.680;5.394;2023-02-22T04:55:08;101327.28;;;6.61;95.85
45523;BME280;31254;51.680;5.394;2023-02-22T04:57:35;101326.41;;;6.61;95.71
45523;BME280;31254;51.680;5.394;2023-02-22T05:00:03;101313.31;;;6.54;96.10
45523;BME280;31254;51.680;5.394;2023-02-22T05:02:31;101311.56;;;6.53;95.88
45523;BME280;31254;51.680;5.394;2023-02-22T05:04:57;101320.22;;;6.58;96.20
45523;BME280;31254;51.680;5.394;2023-02-22T05:07:24;101314.41;;;6.52;96.00
45523;BME280;31254;51.680;5.394;2023-02-22T05:09:51;101327.50;;;6.58;96.26
45523;BME280;31254;51.680;5.394;2023-02-22T05:12:17;101352.50;;;6.74;96.39
45523;BME280;31254;51.680;5.394;2023-02-22T05:14:44;101331.16;;;6.70;96.25
45523;BME280;31254;51.680;5.394;2023-02-22T05:17:13;101325.44;;;6.62;96.16
45523;BME280;31254;51.680;5.394;2023-02-22T05:19:42;101321.53;;;6.66;96.17
45523;BME280;31254;51.680;5.394;2023-02-22T05:22:12;101319.78;;;6.65;96.50
45523;BME280;31254;51.680;5.394;2023-02-22T05:24:41;101318.75;;;6.54;96.68
45523;BME280;31254;51.680;5.394;2023-02-22T05:27:09;101336.06;;;6.65;96.59
45523;BME280;31254;51.680;5.394;2023-02-22T05:29:36;101334.31;;;6.64;96.84
45523;BME280;31254;51.680;5.394;2023-02-22T05:32:04;101330.00;;;6.61;96.74
45523;BME280;31254;51.680;5.394;2023-02-22T05:34:33;101295.88;;;6.46;96.58
45523;BME280;31254;51.680;5.394;2023-02-22T05:37:00;101321.88;;;6.61;96.88
45523;BME280;31254;51.680;5.394;2023-02-22T05:39:27;101324.69;;;6.59;96.72
45523;BME280;31254;51.680;5.394;2023-02-22T05:41:53;101320.13;;;6.60;96.94
45523;BME280;31254;51.680;5.394;2023-02-22T05:44:20;101297.72;;;6.45;97.00
45523;BME280;31254;51.680;5.394;2023-02-22T05:46:47;101234.03;;;6.14;96.30
45523;BME280;31254;51.680;5.394;2023-02-22T05:49:14;101310.91;;;6.63;96.80
45523;BME280;31254;51.680;5.394;2023-02-22T05:51:41;101296.50;;;6.49;96.77
45523;BME280;31254;51.680;5.394;2023-02-22T05:54:07;101298.13;;;6.52;96.89
45523;BME280;31254;51.680;5.394;2023-02-22T05:56:34;101267.94;;;6.32;96.74
45523;BME280;31254;51.680;5.394;2023-02-22T05:59:01;101278.63;;;6.47;96.79
45523;BME280;31254;51.680;5.394;2023-02-22T06:01:30;101278.00;;;6.43;96.66
45523;BME280;31254;51.680;5.394;2023-02-22T06:03:57;101275.63;;;6.38;96.85
45523;BME280;31254;51.680;5.394;2023-02-22T06:06:24;101291.31;;;6.46;96.66
45523;BME280;31254;51.680;5.394;2023-02-22T06:08:50;101285.78;;;6.48;96.77
45523;BME280;31254;51.680;5.394;2023-02-22T06:11:17;101279.59;;;6.46;96.65
45523;BME280;31254;51.680;5.394;2023-02-22T06:13:51;101273.09;;;6.48;96.69
45523;BME280;31254;51.680;5.394;2023-02-22T06:16:21;101253.53;;;6.32;96.44
45523;BME280;31254;51.680;5.394;2023-02-22T06:18:50;101242.25;;;6.25;96.76
45523;BME280;31254;51.680;5.394;2023-02-22T06:21:16;101265.31;;;6.44;96.51
45523;BME280;31254;51.680;5.394;2023-02-22T06:23:44;101269.50;;;6.48;96.85
45523;BME280;31254;51.680;5.394;2023-02-22T06:26:15;101254.56;;;6.42;96.73
45523;BME280;31254;51.680;5.394;2023-02-22T06:28:42;101227.63;;;6.28;96.69
45523;BME280;31254;51.680;5.394;2023-02-22T06:31:11;101261.25;;;6.49;96.77
45523;BME280;31254;51.680;5.394;2023-02-22T06:33:40;101227.19;;;6.34;96.85
45523;BME280;31254;51.680;5.394;2023-02-22T06:36:09;101238.31;;;6.42;96.77
45523;BME280;31254;51.680;5.394;2023-02-22T06:38:36;101248.81;;;6.47;96.94
45523;BME280;31254;51.680;5.394;2023-02-22T06:41:03;101218.53;;;6.29;96.81
45523;BME280;31254;51.680;5.394;2023-02-22T06:43:32;101246.22;;;6.45;96.81
45523;BME280;31254;51.680;5.394;2023-02-22T06:46:01;101244.38;;;6.46;96.49
45523;BME280;31254;51.680;5.394;2023-02-22T06:48:30;101246.97;;;6.47;96.81
45523;BME280;31254;51.680;5.394;2023-02-22T06:51:00;101227.41;;;6.31;96.54
45523;BME280;31254;51.680;5.394;2023-02-22T06:53:26;101249.78;;;6.46;96.97
45523;BME280;31254;51.680;5.394;2023-02-22T06:55:55;101234.84;;;6.40;96.71
45523;BME280;31254;51.680;5.394;2023-02-22T06:58:22;101233.53;;;6.46;96.96
45523;BME280;31254;51.680;5.394;2023-02-22T07:00:49;101243.69;;;6.55;97.11
45523;BME280;31254;51.680;5.394;2023-02-22T07:03:15;101244.03;;;6.50;96.63
45523;BME280;31254;51.680;5.394;2023-02-22T07:05:42;101255.38;;;6.55;97.10
45523;BME280;31254;51.680;5.394;2023-02-22T07:08:14;101265.91;;;6.60;96.94
45523;BME280;31254;51.680;5.394;2023-02-22T07:10:40;101268.50;;;6.62;97.00
45523;BME280;31254;51.680;5.394;2023-02-22T07:13:07;101263.69;;;6.65;97.46
45523;BME280;31254;51.680;5.394;2023-02-22T07:15:35;101254.09;;;6.61;97.09
45523;BME280;31254;51.680;5.394;2023-02-22T07:18:04;101259.50;;;6.61;97.03
45523;BME280;31254;51.680;5.394;2023-02-22T07:20:31;101224.88;;;6.40;96.75
45523;BME280;31254;51.680;5.394;2023-02-22T07:22:58;101270.97;;;6.65;96.90
45523;BME280;31254;51.680;5.394;2023-02-22T07:25:26;101273.00;;;6.74;96.91
45523;BME280;31254;51.680;5.394;2023-02-22T07:27:52;101256.31;;;6.67;96.82
45523;BME280;31254;51.680;5.394;2023-02-22T07:30:24;101269.41;;;6.73;96.82
45523;BME280;31254;51.680;5.394;2023-02-22T07:32:54;101276.88;;;6.83;96.93
45523;BME280;31254;51.680;5.394;2023-02-22T07:35:25;101282.94;;;6.86;96.81
45523;BME280;31254;51.680;5.394;2023-02-22T07:37:55;101247.22;;;6.68;96.77
45523;BME280;31254;51.680;5.394;2023-02-22T07:40:22;101290.50;;;6.94;96.63
45523;BME280;31254;51.680;5.394;2023-02-22T07:42:55;101276.06;;;6.93;96.96
45523;BME280;31254;51.680;5.394;2023-02-22T07:45:24;101277.78;;;6.94;96.57
45523;BME280;31254;51.680;5.394;2023-02-22T07:47:51;101285.81;;;6.96;96.72
45523;BME280;31254;51.680;5.394;2023-02-22T07:50:19;101290.88;;;7.01;96.56
45523;BME280;31254;51.680;5.394;2023-02-22T07:52:50;101291.41;;;7.06;96.77
45523;BME280;31254;51.680;5.394;2023-02-22T07:55:24;101298.22;;;7.11;96.62
45523;BME280;31254;51.680;5.394;2023-02-22T07:57:53;101295.16;;;7.16;96.53
45523;BME280;31254;51.680;5.394;2023-02-22T08:00:28;101295.16;;;7.16;96.48
45523;BME280;31254;51.680;5.394;2023-02-22T08:03:04;101294.06;;;7.19;96.36
45523;BME280;31254;51.680;5.394;2023-02-22T08:05:34;101307.16;;;7.25;96.46
45523;BME280;31254;51.680;5.394;2023-02-22T08:08:02;101296.31;;;7.25;96.11
45523;BME280;31254;51.680;5.394;2023-02-22T08:10:33;101290.00;;;7.24;96.08
45523;BME280;31254;51.680;5.394;2023-02-22T08:13:04;101299.75;;;7.27;96.02
45523;BME280;31254;51.680;5.394;2023-02-22T08:15:33;101273.09;;;7.21;96.01
45523;BME280;31254;51.680;5.394;2023-02-22T08:18:02;101257.91;;;7.18;95.82
45523;BME280;31254;51.680;5.394;2023-02-22T08:20:29;101278.97;;;7.39;95.77
45523;BME280;31254;51.680;5.394;2023-02-22T08:22:57;101275.38;;;7.38;95.20
45523;BME280;31254;51.680;5.394;2023-02-22T08:25:27;101276.63;;;7.45;95.42
45523;BME280;31254;51.680;5.394;2023-02-22T08:28:00;101180.41;;;7.03;95.45
45523;BME280;31254;51.680;5.394;2023-02-22T08:30:30;101209.91;;;7.07;95.23
45523;BME280;31254;51.680;5.394;2023-02-22T08:33:00;101205.50;;;7.18;94.82
45523;BME280;31254;51.680;5.394;2023-02-22T08:35:31;101258.50;;;7.46;95.22
45523;BME280;31254;51.680;5.394;2023-02-22T08:38:04;101273.84;;;7.58;94.69
45523;BME280;31254;51.680;5.394;2023-02-22T08:40:33;101259.28;;;7.71;94.42
45523;BME280;31254;51.680;5.394;2023-02-22T08:43:00;101261.63;;;7.75;94.01
45523;BME280;31254;51.680;5.394;2023-02-22T08:45:27;101236.81;;;7.68;93.46
45523;BME280;31254;51.680;5.394;2023-02-22T08:47:57;101251.75;;;7.85;93.29
45523;BME280;31254;51.680;5.394;2023-02-22T08:50:28;101249.16;;;7.95;93.12
45523;BME280;31254;51.680;5.394;2023-02-22T08:53:00;101253.88;;;8.04;93.00
45523;BME280;31254;51.680;5.394;2023-02-22T08:55:31;101274.25;;;8.21;92.36
45523;BME280;31254;51.680;5.394;2023-02-22T08:58:00;101263.25;;;8.34;92.04
45523;BME280;31254;51.680;5.394;2023-02-22T09:00:29;101252.53;;;8.44;91.76
45523;BME280;31254;51.680;5.394;2023-02-22T09:03:00;101252.50;;;8.55;91.76
45523;BME280;31254;51.680;5.394;2023-02-22T09:05:28;101246.16;;;8.66;91.27
45523;BME280;31254;51.680;5.394;2023-02-22T09:07:57;101248.97;;;8.76;91.06
45523;BME280;31254;51.680;5.394;2023-02-22T09:10:26;101255.25;;;8.88;90.41
45523;BME280;31254;51.680;5.394;2023-02-22T09:12:53;101189.28;;;8.63;90.36
45523;BME280;31254;51.680;5.394;2023-02-22T09:15:21;101226.84;;;9.02;89.79
45523;BME280;31254;51.680;5.394;2023-02-22T09:17:48;101210.91;;;8.97;89.46
45523;BME280;31254;51.680;5.394;2023-02-22T09:20:19;101222.22;;;9.13;89.88
45523;BME280;31254;51.680;5.394;2023-02-22T09:22:48;101218.97;;;9.20;89.74
45523;BME280;31254;51.680;5.394;2023-02-22T09:25:15;101227.81;;;9.33;88.90
45523;BME280;31254;51.680;5.394;2023-02-22T09:27:47;101213.97;;;9.25;89.49
45523;BME280;31254;51.680;5.394;2023-02-22T09:30:28;101220.31;;;9.25;88.96
45523;BME280;31254;51.680;5.394;2023-02-22T09:33:01;101180.00;;;9.19;88.65
45523;BME280;31254;51.680;5.394;2023-02-22T09:35:28;101217.91;;;9.53;87.78
45523;BME280;31254;51.680;5.394;2023-02-22T09:37:58;101218.81;;;9.63;87.92
45523;BME280;31254;51.680;5.394;2023-02-22T09:40:28;101205.16;;;9.84;87.24
45523;BME280;31254;51.680;5.394;2023-02-22T09:45:37;101201.78;;;10.33;85.43
45523;BME280;31254;51.680;5.394;2023-02-22T09:48:15;101208.88;;;10.55;84.88
45523;BME280;31254;51.680;5.394;2023-02-22T09:50:48;101208.75;;;10.76;84.33
45523;BME280;31254;51.680;5.394;2023-02-22T09:55:46;101216.66;;;10.98;83.75
45523;BME280;31254;51.680;5.394;2023-02-22T09:58:23;101189.66;;;10.86;83.82
45523;BME280;31254;51.680;5.394;2023-02-22T10:00:59;101182.47;;;10.94;83.38
45523;BME280;31254;51.680;5.394;2023-02-22T10:03:46;101207.28;;;11.21;83.50
45523;BME280;31254;51.680;5.394;2023-02-22T10:06:16;101175.28;;;11.13;82.88
45523;BME280;31254;51.680;5.394;2023-02-22T10:08:46;101185.88;;;11.36;83.00
45523;BME280;31254;51.680;5.394;2023-02-22T10:11:27;101181.38;;;11.44;82.59
45523;BME280;31254;51.680;5.394;2023-02-22T10:16:56;101183.97;;;11.46;82.85
45523;BME280;31254;51.680;5.394;2023-02-22T10:25:10;101196.66;;;11.84;81.26
45523;BME280;31254;51.680;5.394;2023-02-22T10:27:45;101196.66;;;11.94;80.91
45523;BME280;31254;51.680;5.394;2023-02-22T10:30:29;101195.44;;;12.06;80.69
45523;BME280;31254;51.680;5.394;2023-02-22T10:33:40;101200.03;;;12.06;80.97
45523;BME280;31254;51.680;5.394;2023-02-22T10:36:21;101198.59;;;12.12;80.49
45523;BME280;31254;51.680;5.394;2023-02-22T10:38:58;101199.44;;;12.12;80.39
45523;BME280;31254;51.680;5.394;2023-02-22T10:41:31;101184.44;;;12.16;80.39
45523;BME280;31254;51.680;5.394;2023-02-22T10:43:58;101184.78;;;12.03;80.58
45523;BME280;31254;51.680;5.394;2023-02-22T10:46:27;101194.88;;;12.03;80.74
45523;BME280;31254;51.680;5.394;2023-02-22T10:49:01;101195.47;;;11.97;80.81
45523;BME280;31254;51.680;5.394;2023-02-22T10:51:29;101206.41;;;11.97;80.84
45523;BME280;31254;51.680;5.394;2023-02-22T10:56:51;101178.59;;;11.64;81.36
45523;BME280;31254;51.680;5.394;2023-02-22T11:02:00;101194.13;;;11.73;81.53
45523;BME280;31254;51.680;5.394;2023-02-22T11:04:52;101201.44;;;11.73;81.67
45523;BME280;31254;51.680;5.394;2023-02-22T11:07:32;101190.09;;;11.67;81.58
45523;BME280;31254;51.680;5.394;2023-02-22T11:10:07;101199.31;;;11.66;81.79
45523;BME280;31254;51.680;5.394;2023-02-22T11:12:39;101193.84;;;11.66;81.74
45523;BME280;31254;51.680;5.394;2023-02-22T11:17:49;101184.31;;;11.70;81.71
45523;BME280;31254;51.680;5.394;2023-02-22T11:20:21;101179.88;;;11.69;81.53
45523;BME280;31254;51.680;5.394;2023-02-22T11:25:23;101178.22;;;11.86;80.90
45523;BME280;31254;51.680;5.394;2023-02-22T11:27:51;101183.09;;;12.02;80.51
45523;BME280;31254;51.680;5.394;2023-02-22T11:40:42;101159.63;;;12.28;79.85
45523;BME280;31254;51.680;5.394;2023-02-22T11:43:18;101160.09;;;12.23;80.19
45523;BME280;31254;51.680;5.394;2023-02-22T11:46:04;101128.94;;;12.06;80.64
45523;BME280;31254;51.680;5.394;2023-02-22T11:48:33;101152.81;;;12.14;80.56
45523;BME280;31254;51.680;5.394;2023-02-22T11:51:25;101140.88;;;12.05;80.66
45523;BME280;31254;51.680;5.394;2023-02-22T11:54:27;101136.69;;;12.11;80.70
45523;BME280;31254;51.680;5.394;2023-02-22T12:08:29;101134.56;;;12.04;79.97
45523;BME280;31254;51.680;5.394;2023-02-22T12:11:36;101103.16;;;11.81;80.02
45523;BME280;31254;51.680;5.394;2023-02-22T12:14:37;101126.28;;;11.96;80.00
45523;BME280;31254;51.680;5.394;2023-02-22T12:19:54;101126.75;;;11.82;80.20
45523;BME280;31254;51.680;5.394;2023-02-22T12:24:57;101096.97;;;11.79;80.68
45523;BME280;31254;51.680;5.394;2023-02-22T12:27:46;101093.00;;;11.73;81.02
45523;BME280;31254;51.680;5.394;2023-02-22T12:30:25;101088.78;;;11.79;81.12
45523;BME280;31254;51.680;5.394;2023-02-22T12:32:57;101088.06;;;11.77;81.19
45523;BME280;31254;51.680;5.394;2023-02-22T12:43:17;101106.06;;;11.79;81.44
45523;BME280;31254;51.680;5.394;2023-02-22T12:48:46;101111.78;;;11.86;81.51
45523;BME280;31254;51.680;5.394;2023-02-22T12:54:13;101086.78;;;11.71;81.57
45523;BME280;31254;51.680;5.394;2023-02-22T12:59:19;101112.47;;;11.88;81.56
45523;BME280;31254;51.680;5.394;2023-02-22T13:01:55;101111.91;;;11.84;81.62
45523;BME280;31254;51.680;5.394;2023-02-22T13:04:27;101117.53;;;11.93;81.59
45523;BME280;31254;51.680;5.394;2023-02-22T13:10:15;101123.09;;;11.91;81.74
45523;BME280;31254;51.680;5.394;2023-02-22T13:12:52;101118.38;;;11.93;81.81
45523;BME280;31254;51.680;5.394;2023-02-22T13:21:10;101123.53;;;11.96;81.78
45523;BME280;31254;51.680;5.394;2023-02-22T13:29:32;101101.00;;;11.84;81.74
45523;BME280;31254;51.680;5.394;2023-02-22T13:37:34;101107.91;;;12.06;81.13
45523;BME280;31254;51.680;5.394;2023-02-22T13:43:02;101108.34;;;12.12;80.79
45523;BME280;31254;51.680;5.394;2023-02-22T13:51:52;101103.72;;;12.12;80.60
45523;BME280;31254;51.680;5.394;2023-02-22T13:56:55;101093.41;;;12.06;80.51
45523;BME280;31254;51.680;5.394;2023-02-22T13:59:35;101095.75;;;12.01;80.84
45523;BME280;31254;51.680;5.394;2023-02-22T14:02:04;101092.75;;;11.94;80.95
45523;BME280;31254;51.680;5.394;2023-02-22T14:04:36;101109.31;;;11.93;81.07
45523;BME280;31254;51.680;5.394;2023-02-22T14:09:56;101118.09;;;11.86;81.38
45523;BME280;31254;51.680;5.394;2023-02-22T14:20:33;101125.03;;;11.81;81.40
45523;BME280;31254;51.680;5.394;2023-02-22T14:23:25;101132.91;;;11.84;81.65
45523;BME280;31254;51.680;5.394;2023-02-22T14:25:54;101142.00;;;11.84;81.23
45523;BME280;31254;51.680;5.394;2023-02-22T14:31:29;101117.72;;;11.71;81.82
45523;BME280;31254;51.680;5.394;2023-02-22T14:34:18;101125.03;;;11.81;81.85
45523;BME280;31254;51.680;5.394;2023-02-22T14:40:42;101136.31;;;11.68;81.97
45523;BME280;31254;51.680;5.394;2023-02-22T14:42:47;101132.88;;;11.56;81.78
45523;BME280;31254;51.680;5.394;2023-02-22T14:45:23;101134.78;;;11.56;82.34
45523;BME280;31254;51.680;5.394;2023-02-22T14:48:01;101136.06;;;11.51;82.57
45523;BME280;31254;51.680;5.394;2023-02-22T14:55:46;101130.88;;;11.58;82.33
45523;BME280;31254;51.680;5.394;2023-02-22T14:58:23;101143.38;;;11.61;82.42
45523;BME280;31254;51.680;5.394;2023-02-22T15:00:53;101122.25;;;11.53;82.30
45523;BME280;31254;51.680;5.394;2023-02-22T15:03:31;101074.38;;;11.21;82.42
45523;BME280;31254;51.680;5.394;2023-02-22T15:08:45;101149.88;;;11.60;82.21
45523;BME280;31254;51.680;5.394;2023-02-22T15:11:23;101086.13;;;11.22;82.41
45523;BME280;31254;51.680;5.394;2023-02-22T15:13:53;101138.50;;;11.55;82.61
45523;BME280;31254;51.680;5.394;2023-02-22T15:16:26;101028.78;;;10.84;82.66
45523;BME280;31254;51.680;5.394;2023-02-22T15:18:57;101135.50;;;11.48;82.80
45523;BME280;31254;51.680;5.394;2023-02-22T15:21:26;101132.22;;;11.44;82.66
45523;BME280;31254;51.680;5.394;2023-02-22T15:23:57;101145.28;;;11.50;82.62
45523;BME280;31254;51.680;5.394;2023-02-22T15:26:34;101143.41;;;11.51;83.00
45523;BME280;31254;51.680;5.394;2023-02-22T15:29:13;101138.94;;;11.50;82.94
45523;BME280;31254;51.680;5.394;2023-02-22T15:31:40;101143.56;;;11.49;82.86
45523;BME280;31254;51.680;5.394;2023-02-22T15:36:41;101144.72;;;11.47;83.16
45523;BME280;31254;51.680;5.394;2023-02-22T15:39:23;101147.03;;;11.42;83.25
45523;BME280;31254;51.680;5.394;2023-02-22T15:42:04;101155.69;;;11.37;83.62
45523;BME280;31254;51.680;5.394;2023-02-22T15:44:41;101148.78;;;11.33;83.45
45523;BME280;31254;51.680;5.394;2023-02-22T15:47:22;101158.25;;;11.29;83.82
45523;BME280;31254;51.680;5.394;2023-02-22T15:55:34;101169.81;;;11.13;83.98
45523;BME280;31254;51.680;5.394;2023-02-22T16:01:07;101166.22;;;11.03;84.56
45523;BME280;31254;51.680;5.394;2023-02-22T16:03:43;101167.53;;;10.98;84.40
45523;BME280;31254;51.680;5.394;2023-02-22T16:08:58;100982.88;;;9.82;84.53
45523;BME280;31254;51.680;5.394;2023-02-22T16:11:33;101157.47;;;10.89;84.97
45523;BME280;31254;51.680;5.394;2023-02-22T16:19:52;101168.38;;;10.79;84.96
45523;BME280;31254;51.680;5.394;2023-02-22T16:24:54;101176.28;;;10.73;85.41